Time;durP1;ratioP1;P1;durP2;ratioP2;P2;SDS_P1;SDS_P2;PMS_P1;PMS_P2;Temp;Humidity;BMP_temperature;BMP_pressure;BME280_temperature;BME280_humidity;BME280_pressure;Samples;Min_cycle;Max_cycle;Signal;HPM_P1;HPM_P2
2023/02/17 00:00:59;;;;;;;29.50;20.10;;;;;;;6.39;59.31;100021.84;5092445;28;20055;-48
2023/02/17 00:03:27;;;;;;;30.35;20.77;;;;;;;6.37;59.36;100019.38;5093742;28;20505;-48
2023/02/17 00:05:54;;;;;;;35.33;20.08;;;;;;;6.29;59.30;100018.44;5092336;28;20020;-48
2023/02/17 00:08:21;;;;;;;32.25;19.83;;;;;;;6.23;60.69;100019.00;5093687;28;20051;-48
2023/02/17 00:10:57;;;;;;;28.38;20.83;;;;;;;6.28;60.74;100020.25;5093538;28;20112;-48
2023/02/17 00:13:25;;;;;;;32.80;21.30;;;;;;;6.28;60.84;100027.22;5075696;28;20036;-48
2023/02/17 00:15:52;;;;;;;30.35;20.08;;;;;;;6.25;61.20;100025.72;5092919;28;20070;-48
2023/02/17 00:18:19;;;;;;;25.55;20.38;;;;;;;6.39;61.44;100025.28;5092239;28;20021;-48
2023/02/17 00:20:46;;;;;;;29.95;20.30;;;;;;;6.31;60.23;100027.75;5092078;28;20028;-48
2023/02/17 00:23:13;;;;;;;30.45;18.77;;;;;;;6.21;60.47;100029.56;5093334;28;20034;-48
2023/02/17 00:25:40;;;;;;;28.17;18.38;;;;;;;6.29;60.06;100031.47;5093285;28;20039;-48
2023/02/17 00:28:07;;;;;;;23.52;17.33;;;;;;;6.31;58.49;100026.94;5093243;28;20043;-47
2023/02/17 00:30:36;;;;;;;24.35;17.95;;;;;;;6.32;59.38;100033.81;5093173;28;20455;-48
2023/02/17 00:33:05;;;;;;;24.85;18.23;;;;;;;6.30;59.97;100031.34;5091770;28;20024;-48
2023/02/17 00:35:32;;;;;;;29.88;20.20;;;;;;;6.44;60.05;100035.31;5092871;28;20028;-48
2023/02/17 00:37:59;;;;;;;27.60;18.98;;;;;;;6.24;59.58;100033.66;5075174;28;20035;-47
2023/02/17 00:40:26;;;;;;;29.85;20.15;;;;;;;5.96;61.04;100030.97;5093232;28;20462;-48
2023/02/17 00:42:53;;;;;;;30.02;18.60;;;;;;;5.92;62.40;100026.94;5091665;28;20401;-48
2023/02/17 00:45:20;;;;;;;26.48;17.80;;;;;;;6.20;60.79;100028.75;5091232;28;20093;-48
2023/02/17 00:47:49;;;;;;;29.92;18.58;;;;;;;6.55;61.10;100027.31;5092821;28;20027;-48
2023/02/17 00:50:16;;;;;;;23.42;18.60;;;;;;;6.78;59.50;100021.75;5091485;28;20401;-48
2023/02/17 00:52:43;;;;;;;28.27;19.85;;;;;;;6.70;58.93;100021.63;5092766;28;20020;-48
2023/02/17 00:55:10;;;;;;;28.45;18.40;;;;;;;6.53;59.86;100018.81;5092801;28;20028;-48
2023/02/17 00:57:37;;;;;;;28.63;20.00;;;;;;;6.48;59.52;100014.97;5092932;28;20027;-48
2023/02/17 01:00:05;;;;;;;25.55;19.65;;;;;;;6.24;59.93;100024.09;5092599;28;20021;-48
2023/02/17 01:02:32;;;;;;;27.58;20.38;;;;;;;6.15;60.70;100019.69;5091294;28;20085;-48
2023/02/17 01:04:59;;;;;;;30.42;18.33;;;;;;;6.00;60.67;100027.94;5092508;28;20027;-48
2023/02/17 01:07:26;;;;;;;28.00;18.50;;;;;;;5.91;61.12;100026.09;5092506;28;20027;-48
2023/02/17 01:09:53;;;;;;;27.77;20.83;;;;;;;5.92;61.29;100032.16;5092446;28;20063;-48
2023/02/17 01:12:25;;;;;;;33.70;20.90;;;;;;;5.85;61.44;100025.84;5091045;28;20233;-47
2023/02/17 01:15:08;;;;;;;28.40;19.83;;;;;;;5.84;61.91;100034.63;5092322;28;20482;-48
2023/02/17 01:17:51;;;;;;;29.55;20.15;;;;;;;5.69;62.02;100037.59;5092270;28;20016;-49
2023/02/17 01:20:29;;;;;;;25.42;18.20;;;;;;;5.66;62.71;100042.28;5090913;28;20114;-49
2023/02/17 01:22:57;;;;;;;26.85;19.23;;;;;;;5.74;62.18;100045.03;5090962;28;20390;-49
2023/02/17 01:25:25;;;;;;;41.83;20.45;;;;;;;5.66;62.41;100048.31;5091812;28;20028;-48
2023/02/17 01:28:13;;;;;;;28.42;20.38;;;;;;;5.42;62.82;100050.47;5091822;28;20024;-49
2023/02/17 01:30:50;;;;;;;27.42;20.23;;;;;;;5.25;63.16;100049.28;5090779;28;20024;-48
2023/02/17 01:33:28;;;;;;;28.38;19.80;;;;;;;5.21;63.84;100048.72;5092144;28;20024;-49
2023/02/17 01:36:06;;;;;;;24.80;16.95;;;;;;;5.37;63.82;100037.81;5091907;28;20016;-48
2023/02/17 01:38:34;;;;;;;25.92;16.80;;;;;;;5.70;63.03;100048.88;5090703;28;20027;-48
2023/02/17 01:41:15;;;;;;;25.92;19.80;;;;;;;5.88;62.96;100042.03;5090603;28;20064;-48
2023/02/17 01:44:18;;;;;;;29.08;20.52;;;;;;;5.80;62.32;100039.28;5090632;28;20412;-49
2023/02/17 01:46:57;;;;;;;26.95;19.45;;;;;;;5.65;62.59;100040.63;5088183;28;20040;-48
2023/02/17 01:49:38;;;;;;;25.15;20.02;;;;;;;5.43;63.23;100050.31;5090647;28;20040;-48
2023/02/17 01:52:36;;;;;;;29.00;21.40;;;;;;;5.32;64.10;100040.84;5090545;28;20497;-48
2023/02/17 01:55:39;;;;;;;26.90;19.10;;;;;;;5.48;65.33;100034.31;5091878;28;20393;-49
2023/02/17 01:58:20;;;;;;;32.42;20.20;;;;;;;5.59;66.30;100041.97;5091887;28;20093;-49
2023/02/17 02:00:55;;;;;;;25.95;19.05;;;;;;;5.52;65.28;100030.47;5090468;28;20020;-48
2023/02/17 02:03:33;;;;;;;26.67;19.33;;;;;;;5.47;64.13;100036.06;5090445;28;20028;-49
2023/02/17 02:06:31;;;;;;;26.88;20.90;;;;;;;5.42;64.84;100025.25;5090540;28;20024;-48
2023/02/17 02:09:38;;;;;;;29.80;19.23;;;;;;;5.37;65.17;100022.19;5091781;28;20520;-49
2023/02/17 02:12:30;;;;;;;30.17;20.10;;;;;;;5.50;65.19;100024.56;5090308;28;20031;-48
2023/02/17 02:15:26;;;;;;;27.98;19.98;;;;;;;5.60;64.95;100025.41;5088138;28;20391;-49
2023/02/17 02:18:14;;;;;;;29.63;20.03;;;;;;;5.60;64.67;100012.38;5090232;28;20032;-48
2023/02/17 02:21:38;;;;;;;24.55;18.70;;;;;;;5.64;64.44;100016.38;5090223;28;20798;-47
2023/02/17 02:24:54;;;;;;;30.80;19.95;;;;;;;5.84;64.79;100011.19;5029182;28;20506;-47
2023/02/17 02:28:12;;;;;;;31.55;19.10;;;;;;;5.98;64.07;100018.63;5019352;28;20033;-48
2023/02/17 02:31:16;;;;;;;28.40;20.02;;;;;;;5.73;63.13;100023.34;5029207;28;20116;-49
2023/02/17 02:34:26;;;;;;;25.88;18.80;;;;;;;5.58;63.26;100028.16;4989788;28;20113;-49
2023/02/17 02:37:34;;;;;;;33.33;19.45;;;;;;;5.45;63.42;100030.16;4989840;28;20042;-48
2023/02/17 02:40:23;;;;;;;25.63;18.05;;;;;;;5.46;64.06;100025.81;4977247;28;20045;-48
2023/02/17 02:43:00;;;;;;;33.75;20.00;;;;;;;5.47;63.88;100025.66;4993457;28;20038;-47
2023/02/17 02:45:39;;;;;;;38.85;25.33;;;;;;;5.49;63.85;100020.31;4961051;28;20034;-48
2023/02/17 02:48:05;;;;;;;30.08;19.95;;;;;;;5.52;64.06;100022.66;4993245;28;20042;-48
2023/02/17 02:54:39;;;;;;;28.75;19.13;;;;;;;5.30;64.03;100021.09;4993433;28;20582;-48
2023/02/17 02:57:40;;;;;;;29.35;18.08;;;;;;;5.29;63.54;100017.69;4993153;28;20073;-48
2023/02/17 03:00:52;;;;;;;26.02;17.25;;;;;;;5.45;63.41;100013.72;5013356;28;20033;-49
2023/02/17 03:07:20;;;;;;;23.75;18.02;;;;;;;5.33;64.22;100016.47;5052535;28;20044;-48
2023/02/17 03:09:59;;;;;;;24.83;18.83;;;;;;;5.43;64.08;100020.84;5082828;28;20039;-49
2023/02/17 03:12:45;;;;;;;59.50;53.15;;;;;;;5.50;64.71;100019.38;5093358;28;20024;-48
2023/02/17 03:15:33;;;;;;;29.98;20.10;;;;;;;5.45;63.63;100026.75;5094681;28;20027;-48
2023/02/17 03:18:18;;;;;;;31.15;23.42;;;;;;;5.36;64.38;100025.78;5093271;28;20071;-48
2023/02/17 03:21:13;;;;;;;23.83;19.35;;;;;;;5.39;64.50;100010.72;5093200;28;20020;-47
2023/02/17 03:24:18;;;;;;;26.33;18.65;;;;;;;5.28;64.96;100012.59;5094356;28;20130;-49
2023/02/17 03:27:03;;;;;;;28.55;18.85;;;;;;;5.32;64.75;100008.78;5093000;28;20032;-48
2023/02/17 03:29:47;;;;;;;25.95;19.70;;;;;;;5.37;65.10;100011.78;5094394;28;20034;-49
2023/02/17 03:32:30;;;;;;;29.30;19.20;;;;;;;5.46;64.56;100016.22;5094284;28;20099;-49
2023/02/17 03:34:57;;;;;;;23.52;18.27;;;;;;;5.51;64.52;100007.97;5094308;28;20051;-48
2023/02/17 03:37:25;;;;;;;23.65;17.50;;;;;;;5.39;64.42;100013.31;5094172;28;20044;-47
2023/02/17 03:39:53;;;;;;;24.38;17.70;;;;;;;5.42;64.20;100014.81;5094221;28;20031;-48
2023/02/17 03:42:20;;;;;;;24.05;19.77;;;;;;;5.37;64.04;100010.03;5094106;28;20103;-48
2023/02/17 03:44:50;;;;;;;22.13;17.98;;;;;;;5.21;64.20;100012.28;5094078;28;20016;-48
2023/02/17 03:47:29;;;;;;;24.67;18.30;;;;;;;5.18;65.20;100021.19;5084969;28;20045;-49
2023/02/17 03:50:16;;;;;;;31.20;18.95;;;;;;;5.20;65.26;100011.47;5072837;28;20078;-48
2023/02/17 03:52:45;;;;;;;26.85;17.42;;;;;;;5.32;65.42;100014.81;5055581;28;20406;-49
2023/02/17 03:55:29;;;;;;;26.08;16.77;;;;;;;5.25;63.60;100024.13;5055627;28;20510;-49
2023/02/17 03:58:18;;;;;;;24.52;16.33;;;;;;;5.30;64.03;100024.53;5073564;28;20013;-48
2023/02/17 04:00:45;;;;;;;22.55;15.63;;;;;;;5.35;63.77;100027.56;5073473;28;20021;-48
2023/02/17 04:03:11;;;;;;;24.38;17.35;;;;;;;5.35;64.32;100024.13;5038850;28;20632;-47
2023/02/17 04:05:37;;;;;;;23.48;15.93;;;;;;;5.45;64.21;100027.56;5055466;28;20047;-47
2023/02/17 04:08:23;;;;;;;24.65;16.10;;;;;;;5.48;63.25;100024.69;5055335;28;20525;-49
2023/02/17 04:11:05;;;;;;;20.95;16.75;;;;;;;5.32;63.38;100033.03;5055286;28;20024;-49
2023/02/17 04:13:35;;;;;;;23.02;15.75;;;;;;;5.40;63.75;100035.78;5055268;28;20052;-49
2023/02/17 04:16:23;;;;;;;27.60;16.30;;;;;;;5.52;62.85;100044.31;5073069;28;20024;-48
2023/02/17 04:19:02;;;;;;;21.33;18.00;;;;;;;5.36;63.57;100044.00;5073119;28;20035;-49
2023/02/17 04:21:46;;;;;;;28.40;17.60;;;;;;;5.12;64.07;100039.94;5073022;28;20525;-48
2023/02/17 04:24:30;;;;;;;23.95;17.05;;;;;;;5.04;64.76;100044.16;5055172;28;20101;-49
2023/02/17 04:27:05;;;;;;;20.77;14.25;;;;;;;5.23;63.73;100046.81;5072928;28;20135;-48
2023/02/17 04:29:34;;;;;;;22.35;14.10;;;;;;;5.46;62.97;100039.63;5055358;28;20031;-49
2023/02/17 04:32:13;;;;;;;24.55;15.07;;;;;;;5.62;61.73;100046.13;5054913;28;20041;-49
2023/02/17 04:34:58;;;;;;;24.73;16.63;;;;;;;5.57;62.59;100046.50;5054909;28;20449;-49
2023/02/17 04:37:47;;;;;;;26.15;16.83;;;;;;;5.62;62.76;100054.75;5054947;28;20032;-48
2023/02/17 04:40:29;;;;;;;20.38;16.50;;;;;;;5.45;63.32;100047.56;5072606;28;20035;-49
2023/02/17 04:43:03;;;;;;;22.90;16.98;;;;;;;5.29;63.93;100042.88;5054676;28;20028;-48
2023/02/17 04:45:37;;;;;;;23.52;18.10;;;;;;;5.19;64.53;100040.22;5054585;28;20055;-48
2023/02/17 04:48:12;;;;;;;22.25;14.57;;;;;;;5.29;64.51;100041.13;5071666;28;20036;-50
2023/02/17 04:50:57;;;;;;;24.08;17.17;;;;;;;5.54;63.39;100042.41;5112753;28;20027;-49
2023/02/17 04:53:29;;;;;;;20.35;15.00;;;;;;;5.60;63.63;100051.44;5113099;28;20031;-49
2023/02/17 04:56:11;;;;;;;28.67;18.25;;;;;;;5.70;63.10;100049.69;5112909;28;20493;-48
2023/02/17 04:58:46;;;;;;;26.40;16.40;;;;;;;5.90;63.08;100047.94;5094735;28;20027;-49
2023/02/17 05:01:28;;;;;;;25.30;17.92;;;;;;;6.06;63.46;100047.41;5094620;28;20023;-48
2023/02/17 05:04:02;;;;;;;24.02;17.73;;;;;;;6.12;62.47;100048.66;5112931;28;20049;-47
2023/02/17 05:06:39;;;;;;;25.08;18.38;;;;;;;6.17;62.92;100043.84;5112953;28;20023;-49
2023/02/17 05:09:16;;;;;;;22.58;18.23;;;;;;;6.12;61.84;100048.66;5094519;28;20508;-48
2023/02/17 05:11:42;;;;;;;27.27;18.98;;;;;;;5.96;62.26;100054.41;5094549;28;20020;-48
2023/02/17 05:14:30;;;;;;;26.55;18.27;;;;;;;5.86;63.40;100048.34;5094521;28;20112;-47
2023/02/17 05:17:05;;;;;;;25.30;18.63;;;;;;;5.66;63.87;100050.91;5112620;28;20102;-48
2023/02/17 05:19:36;;;;;;;30.50;17.42;;;;;;;5.82;64.66;100050.38;5112947;28;20453;-49
2023/02/17 05:22:12;;;;;;;30.98;18.08;;;;;;;5.91;63.24;100056.56;5112519;28;20392;-49
2023/02/17 05:24:38;;;;;;;25.67;18.08;;;;;;;5.74;63.64;100063.28;5094316;28;20034;-48
2023/02/17 05:27:08;;;;;;;24.58;16.85;;;;;;;5.51;63.84;100065.25;5112561;28;20024;-48
2023/02/17 05:29:42;;;;;;;27.25;17.77;;;;;;;5.46;63.79;100067.47;5112524;28;20110;-47
2023/02/17 05:32:09;;;;;;;23.08;18.02;;;;;;;5.40;63.61;100064.41;5112411;28;20073;-48
2023/02/17 05:34:37;;;;;;;27.52;17.73;;;;;;;5.22;63.43;100068.63;5094110;28;20020;-48
2023/02/17 05:37:18;;;;;;;24.58;17.45;;;;;;;5.17;63.64;100066.41;5112136;28;20027;-48
2023/02/17 05:39:53;;;;;;;27.73;17.42;;;;;;;5.15;63.72;100067.47;5094097;28;20508;-48
2023/02/17 05:42:20;;;;;;;24.60;18.13;;;;;;;5.07;63.01;100062.09;5112195;28;20074;-47
2023/02/17 05:45:05;;;;;;;25.45;17.77;;;;;;;4.93;63.81;100061.50;5093972;28;20054;-48
2023/02/17 05:47:45;;;;;;;26.98;19.42;;;;;;;5.00;63.55;100065.22;5111893;28;20505;-48
2023/02/17 05:50:14;;;;;;;25.70;19.08;;;;;;;5.02;63.13;100067.72;5093953;28;20057;-48
2023/02/17 05:52:46;;;;;;;26.23;18.35;;;;;;;4.97;63.95;100064.66;5112199;28;20485;-47
2023/02/17 05:55:16;;;;;;;30.00;17.63;;;;;;;5.07;63.63;100059.50;5112194;28;20027;-48
2023/02/17 05:57:47;;;;;;;23.60;17.63;;;;;;;5.23;62.52;100052.03;5112103;28;20397;-48
2023/02/17 06:00:14;;;;;;;27.75;17.58;;;;;;;5.24;62.04;100055.47;5112320;28;20453;-48
2023/02/17 06:02:43;;;;;;;22.38;15.43;;;;;;;5.06;61.60;100056.09;5077187;28;20030;-48
2023/02/17 06:05:12;;;;;;;31.60;15.90;;;;;;;4.91;62.97;100059.97;5112051;28;20023;-48
2023/02/17 06:07:42;;;;;;;20.77;15.18;;;;;;;4.94;63.31;100062.34;5093881;28;20038;-48
2023/02/17 06:10:12;;;;;;;30.83;23.42;;;;;;;4.93;62.64;100063.28;5111919;28;20027;-48
2023/02/17 06:12:45;;;;;;;29.55;20.25;;;;;;;4.94;63.23;100068.34;5113443;28;20485;-47
2023/02/17 06:15:25;;;;;;;35.65;20.58;;;;;;;4.90;63.68;100066.97;5097872;28;20454;-49
2023/02/17 06:18:07;;;;;;;24.60;17.13;;;;;;;4.82;64.04;100073.78;5116158;28;20507;-48
2023/02/17 06:20:54;;;;;;;27.52;18.35;;;;;;;4.86;65.53;100075.97;5116123;28;20064;-47
2023/02/17 06:23:40;;;;;;;32.80;19.65;;;;;;;5.10;65.66;100077.47;5098097;28;20403;-47
2023/02/17 06:26:06;;;;;;;;;;;;;;;5.31;65.94;100070.44;5095524;28;20118;-48
2023/02/17 06:28:34;;;;;;;24.92;16.55;;;;;;;5.65;64.22;100075.28;5097626;28;19915;-49
2023/02/17 06:31:01;;;;;;;24.25;17.08;;;;;;;5.78;63.16;100073.28;5115878;28;20027;-47
2023/02/17 06:33:30;;;;;;;30.90;14.95;;;;;;;5.88;61.75;100082.91;5115872;28;20116;-48
2023/02/17 06:35:57;;;;;;;26.50;16.27;;;;;;;5.84;60.82;100073.72;5115737;28;20023;-48
2023/02/17 06:38:24;;;;;;;29.73;17.85;;;;;;;5.80;62.35;100076.56;5097470;28;20035;-48
2023/02/17 06:40:52;;;;;;;25.77;18.40;;;;;;;5.86;63.24;100079.59;5080483;28;20519;-48
2023/02/17 06:43:19;;;;;;;31.70;18.25;;;;;;;5.86;62.21;100080.41;5115686;28;20019;-47
2023/02/17 06:45:46;;;;;;;31.95;17.90;;;;;;;5.54;62.53;100084.06;5115592;28;20031;-47
2023/02/17 06:48:15;;;;;;;35.42;18.30;;;;;;;5.33;63.04;100084.16;5093623;28;20044;-48
2023/02/17 06:50:42;;;;;;;31.63;17.83;;;;;;;5.26;63.93;100088.22;5093783;28;20062;-48
2023/02/17 06:53:09;;;;;;;30.23;18.67;;;;;;;5.29;63.77;100090.56;5095139;28;20017;-47
2023/02/17 06:55:54;;;;;;;39.10;19.30;;;;;;;5.11;63.51;100090.34;5094908;28;20020;-48
2023/02/17 06:58:22;;;;;;;34.92;18.75;;;;;;;5.10;64.08;100093.09;5095167;28;20561;-48
2023/02/17 07:00:50;;;;;;;27.63;17.48;;;;;;;5.41;63.27;100096.47;5090105;28;20062;-48
2023/02/17 07:03:17;;;;;;;32.75;17.90;;;;;;;5.48;63.32;100089.78;5094987;28;20024;-48
2023/02/17 07:05:44;;;;;;;31.23;17.77;;;;;;;5.41;63.09;100101.69;5094815;28;20432;-47
2023/02/17 07:08:18;;;;;;;28.52;18.63;;;;;;;5.46;63.33;100106.50;5094790;28;20020;-49
2023/02/17 07:10:44;;;;;;;34.40;20.17;;;;;;;5.62;62.65;100103.41;5089281;28;20028;-48
2023/02/17 07:13:10;;;;;;;29.33;17.90;;;;;;;5.68;62.60;100105.47;5076491;28;20064;-48
2023/02/17 07:15:37;;;;;;;29.23;19.17;;;;;;;5.93;61.92;100106.75;5094372;28;20416;-47
2023/02/17 07:18:04;;;;;;;39.15;19.38;;;;;;;6.68;61.06;100107.03;5092002;28;20374;-48
2023/02/17 07:20:32;;;;;;;38.08;17.75;;;;;;;7.11;59.76;100096.09;5094541;28;20051;-48
2023/02/17 07:23:00;;;;;;;28.95;18.02;;;;;;;7.09;58.06;100097.19;5091100;28;20051;-47
2023/02/17 07:25:29;;;;;;;31.00;18.98;;;;;;;6.88;58.13;100087.78;5085371;28;20020;-48
2023/02/17 07:27:56;;;;;;;30.88;18.83;;;;;;;6.94;57.96;100094.22;5094401;28;20034;-47
2023/02/17 07:30:23;;;;;;;29.98;18.00;;;;;;;7.01;58.14;100092.69;5094316;28;20024;-48
2023/02/17 07:32:50;;;;;;;30.98;17.25;;;;;;;7.48;57.24;100099.66;5089596;28;20031;-48
2023/02/17 07:35:17;;;;;;;23.02;16.85;;;;;;;8.01;56.47;100104.16;5094304;28;20024;-48
2023/02/17 07:37:45;;;;;;;24.25;18.25;;;;;;;8.22;55.00;100108.25;5088600;28;20028;-48
2023/02/17 07:40:12;;;;;;;26.17;18.05;;;;;;;8.25;54.78;100100.94;5093105;28;20032;-48
2023/02/17 07:42:47;;;;;;;24.38;17.02;;;;;;;8.50;54.48;100103.78;5071195;28;20492;-49
2023/02/17 07:45:13;;;;;;;26.20;16.95;;;;;;;8.73;53.38;100110.19;5094074;28;20043;-48
2023/02/17 07:47:39;;;;;;;23.60;16.63;;;;;;;9.04;53.24;100093.19;5088555;28;20519;-48
2023/02/17 07:50:07;;;;;;;29.05;16.30;;;;;;;9.32;51.82;100099.06;5092847;28;20020;-48
2023/02/17 07:52:35;;;;;;;33.55;18.40;;;;;;;9.35;51.73;100103.97;5094002;28;20490;-48
2023/02/17 07:55:03;;;;;;;24.85;16.65;;;;;;;9.23;51.95;100110.47;5074115;28;20024;-48
2023/02/17 07:57:30;;;;;;;23.25;17.48;;;;;;;9.02;52.29;100113.47;5094078;28;20107;-48
2023/02/17 07:59:58;;;;;;;26.55;17.52;;;;;;;8.98;52.29;100107.72;5093803;28;20059;-48
2023/02/17 08:02:25;;;;;;;26.38;17.02;;;;;;;9.23;52.30;100119.13;5093775;28;20020;-48
2023/02/17 08:04:51;;;;;;;31.38;17.55;;;;;;;9.63;51.76;100122.91;5093748;28;20401;-48
2023/02/17 08:07:18;;;;;;;37.38;17.35;;;;;;;10.12;51.04;100122.19;5072161;28;20119;-48
2023/02/17 08:15:16;;;;;;;41.53;20.27;;;;;;;13.46;45.37;100114.63;5093528;28;20120;-46
2023/02/17 08:17:47;;;;;;;53.83;20.23;;;;;;;14.02;43.45;100114.03;5093398;28;20020;-46
2023/02/17 08:20:14;;;;;;;32.47;18.30;;;;;;;13.76;42.66;100115.38;5093648;28;20444;-46
2023/02/17 08:22:43;;;;;;;36.50;19.80;;;;;;;13.38;42.32;100114.69;5071894;28;20032;-46
2023/02/17 08:25:10;;;;;;;38.25;19.45;;;;;;;12.79;43.19;100126.00;5092813;28;20394;-46
2023/02/17 08:27:37;;;;;;;40.03;19.50;;;;;;;12.47;43.76;100127.09;5093301;28;20128;-46
2023/02/17 08:30:04;;;;;;;35.20;19.98;;;;;;;12.24;43.92;100127.94;5093287;28;20053;-46
2023/02/17 08:32:31;;;;;;;46.03;20.95;;;;;;;11.96;44.45;100127.63;5093229;28;20453;-46
2023/02/17 08:34:58;;;;;;;34.83;20.15;;;;;;;11.99;44.85;100129.91;5092781;28;20571;-46
2023/02/17 08:37:26;;;;;;;49.00;25.13;;;;;;;12.08;45.26;100128.88;5071706;28;20024;-46
2023/02/17 08:39:54;;;;;;;61.30;24.27;;;;;;;12.89;43.81;100131.03;5090128;28;20485;-46
2023/02/17 08:42:21;;;;;;;47.95;25.92;;;;;;;12.96;43.21;100127.50;5092927;28;20028;-46
2023/02/17 08:44:48;;;;;;;59.25;24.08;;;;;;;12.47;43.58;100133.19;5092936;28;20032;-46
2023/02/17 08:47:15;;;;;;;53.17;23.60;;;;;;;11.89;44.68;100131.94;5092518;28;20032;-46
2023/02/17 08:49:54;;;;;;;90.85;26.13;;;;;;;11.74;45.00;100135.25;5108826;28;20031;-46
2023/02/17 08:52:30;;;;;;;54.65;22.92;;;;;;;11.86;44.85;100134.91;5113071;28;20031;-47
2023/02/17 08:54:56;;;;;;;44.10;20.52;;;;;;;12.03;44.76;100135.63;5113399;28;20032;-46
2023/02/17 08:57:25;;;;;;;65.30;22.85;;;;;;;12.10;45.34;100139.22;5112997;28;20030;-47
2023/02/17 08:59:52;;;;;;;49.40;21.40;;;;;;;12.41;45.06;100138.34;5094723;28;20493;-46
2023/02/17 09:02:20;;;;;;;42.55;20.50;;;;;;;12.86;43.57;100129.56;5112881;28;20410;-46
2023/02/17 09:04:47;;;;;;;52.38;23.08;;;;;;;13.29;42.74;100124.53;5112956;28;20019;-46
2023/02/17 09:07:14;;;;;;;46.78;21.23;;;;;;;14.31;41.54;100126.31;5112823;28;20058;-46
2023/02/17 09:09:41;;;;;;;41.05;22.30;;;;;;;15.15;39.74;100122.91;5112774;28;20046;-47
2023/02/17 09:12:08;;;;;;;58.33;21.73;;;;;;;16.20;38.33;100128.00;5112779;28;20389;-46
2023/02/17 09:14:48;;;;;;;44.05;20.20;;;;;;;17.48;37.03;100135.63;5077587;28;20584;-47
2023/02/17 09:17:53;;;;;;;55.55;22.15;;;;;;;18.34;35.64;100123.75;5112608;28;20020;-47
2023/02/17 09:20:32;;;;;;;46.65;20.45;;;;;;;19.18;33.93;100133.31;5112631;28;20027;-47
2023/02/17 09:23:09;;;;;;;46.25;20.65;;;;;;;19.46;33.32;100132.78;5094400;28;20455;-47
2023/02/17 09:25:40;;;;;;;50.08;20.50;;;;;;;19.99;32.44;100124.13;5094264;28;20035;-46
2023/02/17 09:28:07;;;;;;;30.85;19.63;;;;;;;21.11;30.06;100122.53;5112537;28;20023;-46
2023/02/17 09:30:46;;;;;;;25.20;18.13;;;;;;;22.23;28.68;100126.56;5094226;28;20028;-45
2023/02/17 09:33:13;;;;;;;39.65;18.67;;;;;;;22.85;27.79;100125.69;5094104;28;20023;-45
2023/02/17 09:35:43;;;;;;;40.22;18.52;;;;;;;22.81;26.90;100129.91;5094190;28;20023;-45
2023/02/17 09:38:23;;;;;;;44.38;18.45;;;;;;;22.45;26.97;100142.75;5112309;28;20028;-45
2023/02/17 09:40:50;;;;;;;30.75;18.67;;;;;;;21.99;27.55;100138.44;5094060;28;20417;-44
2023/02/17 09:43:35;;;;;;;39.70;19.45;;;;;;;22.25;27.94;100131.72;5094212;28;20059;-45
2023/02/17 09:46:37;;;;;;;41.60;18.27;;;;;;;23.28;27.36;100134.88;5094052;28;20028;-45
2023/02/17 09:49:43;;;;;;;39.38;18.05;;;;;;;24.85;26.11;100132.34;5080868;28;20415;-45
2023/02/17 09:53:01;;;;;;;33.40;16.98;;;;;;;25.51;24.61;100139.97;5091617;28;20070;-46
2023/02/17 09:55:33;;;;;;;35.90;17.25;;;;;;;25.31;24.13;100141.53;5054359;28;20028;-46
2023/02/17 09:58:40;;;;;;;39.92;17.73;;;;;;;24.49;24.61;100140.16;5073457;28;20039;-46
2023/02/17 10:01:34;;;;;;;26.35;16.90;;;;;;;24.49;24.42;100140.97;5091714;28;20061;-45
2023/02/17 10:04:41;;;;;;;23.52;17.35;;;;;;;24.07;23.97;100128.25;5073476;28;20443;-47
2023/02/17 10:07:28;;;;;;;23.52;15.90;;;;;;;23.81;24.39;100132.56;5073566;28;20027;-45
2023/02/17 10:10:55;;;;;;;26.70;16.13;;;;;;;24.41;24.75;100129.88;5091162;28;20039;-46
2023/02/17 10:13:43;;;;;;;25.45;16.25;;;;;;;25.03;23.40;100131.13;5032376;28;20043;-46
2023/02/17 10:16:55;;;;;;;23.60;16.05;;;;;;;25.02;23.56;100134.91;5072997;28;20032;-45
2023/02/17 10:20:05;;;;;;;22.77;16.05;;;;;;;25.99;22.85;100135.28;5090681;28;20403;-45
2023/02/17 10:22:32;;;;;;;23.42;16.15;;;;;;;26.58;22.04;100131.31;5073483;28;20498;-45
2023/02/17 10:25:42;;;;;;;31.65;17.75;;;;;;;25.12;23.02;100129.56;5073463;28;20062;-45
2023/02/17 10:28:42;;;;;;;32.83;17.98;;;;;;;24.89;23.69;100122.72;5091547;28;20034;-46
2023/02/17 10:31:31;;;;;;;32.15;17.92;;;;;;;25.93;22.86;100124.78;5072610;28;20401;-46
2023/02/17 10:34:16;;;;;;;40.53;18.13;;;;;;;26.98;21.67;100113.41;5073294;28;20111;-45
2023/02/17 10:37:30;;;;;;;27.55;18.80;;;;;;;27.28;20.72;100111.72;5073283;28;20021;-45
2023/02/17 10:39:57;;;;;;;29.65;17.63;;;;;;;27.15;20.60;100115.00;5091498;28;20024;-45
2023/02/17 10:42:46;;;;;;;22.88;16.90;;;;;;;26.90;20.12;100109.41;5073166;28;20516;-45
2023/02/17 10:45:48;;;;;;;26.60;14.48;;;;;;;27.17;20.07;100116.31;5091416;28;20031;-46
2023/02/17 10:48:53;;;;;;;22.10;14.23;;;;;;;27.76;20.23;100108.50;5099648;28;20047;-45
2023/02/17 10:51:41;;;;;;;20.00;12.88;;;;;;;28.25;19.43;100107.63;5111702;28;20043;-45
2023/02/17 10:54:58;;;;;;;17.48;13.40;;;;;;;28.64;19.35;100109.47;5093207;28;20058;-46
2023/02/17 10:57:31;;;;;;;15.20;11.77;;;;;;;28.53;18.89;100103.34;5085236;28;20035;-45
2023/02/17 10:59:57;;;;;;;17.35;11.85;;;;;;;27.77;19.46;100110.94;5114957;28;20413;-45
2023/02/17 11:02:36;;;;;;;19.70;12.45;;;;;;;26.97;19.57;100111.00;5115272;28;20477;-44
2023/02/17 11:05:06;;;;;;;21.38;12.32;;;;;;;26.36;19.99;100110.00;5115315;28;20019;-45
2023/02/17 11:07:42;;;;;;;19.15;11.95;;;;;;;25.77;20.75;100113.97;5115194;28;20110;-45
2023/02/17 11:10:40;;;;;;;20.55;12.82;;;;;;;25.00;21.51;100119.03;5115177;28;20039;-45
2023/02/17 11:13:57;;;;;;;27.05;11.68;;;;;;;24.51;22.60;100121.97;5032461;28;20415;-45
2023/02/17 11:16:53;;;;;;;28.95;14.73;;;;;;;24.83;22.58;100116.53;4997853;28;20116;-46
2023/02/17 11:20:11;;;;;;;32.88;12.85;;;;;;;25.43;22.32;100113.59;5032310;28;20113;-46
2023/02/17 11:23:04;;;;;;;16.98;11.35;;;;;;;26.17;21.56;100111.63;5032086;28;20025;-45
2023/02/17 11:25:34;;;;;;;22.08;12.15;;;;;;;25.71;21.88;100112.34;5019373;28;20574;-45
2023/02/17 11:28:06;;;;;;;19.08;12.05;;;;;;;25.67;22.33;100109.34;5032024;28;20459;-46
2023/02/17 11:30:35;;;;;;;24.15;11.80;;;;;;;26.08;21.65;100098.72;5015175;28;20068;-45
2023/02/17 11:33:32;;;;;;;25.75;12.07;;;;;;;26.49;21.57;100097.88;5015558;28;20025;-46
2023/02/17 11:36:01;;;;;;;24.65;12.00;;;;;;;26.53;20.58;100087.38;5015201;28;20128;-46
2023/02/17 11:38:48;;;;;;;23.33;12.02;;;;;;;26.30;21.28;100087.66;5031853;28;20031;-45
2023/02/17 11:41:17;;;;;;;32.85;12.40;;;;;;;26.51;20.70;100093.03;5030868;28;20112;-46
2023/02/17 11:43:59;;;;;;;22.67;12.40;;;;;;;26.82;20.29;100085.75;5031761;28;20088;-45
2023/02/17 11:47:15;;;;;;;24.50;12.85;;;;;;;26.77;20.24;100079.56;5031714;28;20036;-46
2023/02/17 11:50:12;;;;;;;16.17;10.65;;;;;;;26.65;20.24;100071.75;5070193;28;20070;-45
2023/02/17 11:53:05;;;;;;;22.13;11.45;;;;;;;27.61;19.65;100067.06;5114362;28;20027;-46
2023/02/17 11:55:55;;;;;;;23.98;11.15;;;;;;;28.69;19.12;100055.38;5096016;28;20039;-46
2023/02/17 11:58:54;;;;;;;22.80;10.75;;;;;;;29.14;18.25;100064.06;5096356;28;20031;-46
2023/02/17 12:01:38;;;;;;;18.52;10.85;;;;;;;28.91;18.40;100059.47;5114314;28;20114;-46
2023/02/17 12:04:33;;;;;;;18.90;11.70;;;;;;;29.28;17.95;100046.03;5095912;28;20023;-47
2023/02/17 12:07:15;;;;;;;20.27;11.60;;;;;;;29.91;17.88;100045.94;5114019;28;20378;-46
2023/02/17 12:09:42;;;;;;;23.17;10.88;;;;;;;30.06;17.40;100040.25;5095163;28;20272;-46
2023/02/17 12:12:50;;;;;;;19.13;10.50;;;;;;;29.78;17.36;100048.31;5095430;28;20026;-45
2023/02/17 12:15:55;;;;;;;24.48;10.25;;;;;;;29.75;17.40;100037.25;5113846;28;20055;-46
2023/02/17 12:18:44;;;;;;;23.50;10.47;;;;;;;30.21;17.33;100034.56;5113684;28;20059;-47